Latest Weather Observations for Dalby

IDQ60801

Issued at 4:32 am EST Monday 20 February 2017 (issued every 30 minutes, with the page automatically refreshed every 10 minutes)

About weather observations | Map of weather stations | Latest weather observations for QLD | Other Formats
Station Details ID: 041522 Name: DALBY AIRPORT Lat: -27.16 Lon: 151.26 Height: 343.9 m
Data from the previous 72 hours. | See also: Recent months at Dalby
Date/Time
EST
Temp
°C
App
Temp
°C
Dew
Point
°C
Rel
Hum
%
Delta-T
°C
Wind Press
QNH
hPa
Press
MSL
hPa
Rain since
9am
mm
Dir  Spd
km/h
Gust
km/h
Spd
kts
Gust
kts
20/04:00am 19.7 19.7 18.0 90 1.1 WSW 15 17 8 9 1010.6 1008.6 9.6
20/03:30am 19.8 20.2 18.1 90 1.1 W 13 17 7 9 1010.3 1008.3 9.6
20/03:00am 20.0 20.5 18.3 90 1.1 W 13 20 7 11 1010.1 1008.1 9.6
20/02:30am 20.1 21.4 18.4 90 1.1 W 9 11 5 6 1009.8 1007.7 9.6
20/02:00am 20.0 20.9 18.3 90 1.1 WSW 11 13 6 7 1009.9 1007.8 9.6
20/01:30am 20.1 20.2 18.4 90 1.1 WSW 15 19 8 10 1010.3 1008.3 9.6
20/01:00am 20.1 20.6 18.4 90 1.1 SW 13 15 7 8 1010.4 1008.4 9.6
20/12:30am 20.2 21.4 18.3 89 1.2 N 9 13 5 7 1010.4 1008.4 9.6
20/12:00am 19.9 19.6 18.2 90 1.1 ENE 17 20 9 11 1010.1 1008.1 9.4
 
Date/Time
EST
Temp
°C
App
Temp
°C
Dew
Point
°C
Rel
Hum
%
Delta-T
°C
Wind Press
QNH
hPa
Press
MSL
hPa
Rain since
9am
mm
Dir  Spd
km/h
Gust
km/h
Spd
kts
Gust
kts
19/11:30pm 20.0 20.1 18.3 90 1.1 ENE 15 20 8 11 1010.5 1008.5 9.4
19/11:00pm 20.1 23.1 18.4 90 1.1 CALM 0 0 0 0 1011.3 1009.3 9.4
19/10:30pm 20.1 21.3 18.2 89 1.2 ENE 9 15 5 8 1011.6 1009.6 9.4
19/10:00pm 20.0 20.8 18.1 89 1.2 ENE 11 15 6 8 1011.8 1009.7 9.2
19/09:30pm 20.0 21.7 18.0 88 1.3 SE 6 9 3 5 1011.6 1009.6 9.2
19/09:00pm 19.8 20.1 17.9 89 1.2 SE 13 17 7 9 1011.1 1009.1 9.2
19/08:30pm 19.7 18.8 17.7 88 1.2 SW 19 24 10 13 1011.3 1009.3 7.8
19/08:00pm 21.8 18.7 18.4 81 2.2 WSW 32 43 17 23 1011.0 1009.0 0.2
19/07:57pm 22.0 19.7 18.4 80 2.3 WSW 28 43 15 23 1010.7 1008.7 0.2
19/07:30pm 23.2 25.7 20.2 83 2.0 NW 7 11 4 6 1009.8 1007.7 0.2
19/07:00pm 23.5 25.5 20.0 81 2.3 NW 9 11 5 6 1009.2 1007.1 0.2
19/06:30pm 23.7 26.1 20.0 80 2.4 WNW 7 11 4 6 1008.8 1006.7 0.2
19/06:00pm 23.6 25.9 19.9 80 2.4 NE 7 9 4 5 1008.0 1006.0 0.2
19/05:30pm 23.8 24.6 19.9 79 2.5 NE 15 17 8 9 1007.3 1005.2 0.2
19/05:00pm 24.4 25.5 19.7 75 3.1 NNE 13 17 7 9 1007.5 1005.5 0.2
19/04:30pm 24.8 26.2 19.6 73 3.4 NE 11 13 6 7 1007.2 1005.1 0.2
19/04:00pm 25.0 24.2 18.4 66 4.2 NW 20 26 11 14 1007.7 1005.7 0.2
19/03:30pm 25.2 24.3 18.2 65 4.5 NW 20 32 11 17 1008.0 1006.0 0.2
19/03:00pm 26.6 26.1 19.2 64 4.8 W 20 26 11 14 1008.0 1006.0 0.0
19/02:30pm 26.8 26.9 19.2 63 5.0 WNW 17 26 9 14 1008.2 1006.2 0.0
19/02:00pm 26.8 26.6 19.7 65 4.7 NW 20 28 11 15 1008.5 1006.5 0.0
19/01:30pm 27.8 26.8 18.8 58 5.9 NW 22 30 12 16 1008.4 1006.4 0.0
19/01:00pm 28.2 27.1 19.4 59 5.8 NW 24 32 13 17 1008.7 1006.6 0.0
19/12:30pm 27.7 26.1 18.4 57 6.0 NNW 24 35 13 19 1008.8 1006.7 0.0
19/12:00pm 27.3 25.9 18.0 56 6.0 NNW 22 28 12 15 1009.0 1006.9 0.0
19/11:30am 27.0 27.2 19.4 63 5.0 NNW 17 24 9 13 1009.3 1007.2 0.0
19/11:00am 25.6 26.3 20.4 73 3.4 NNW 17 22 9 12 1009.5 1007.4 0.0
19/10:30am 25.1 26.4 20.1 74 3.3 NNW 13 17 7 9 1009.8 1007.7 0.0
19/10:00am 24.6 27.6 21.3 82 2.2 NW 7 13 4 7 1010.0 1007.9 0.0
19/09:30am 23.0 24.9 19.0 78 2.6 W 7 11 4 6 1009.8 1007.7 0.0
19/09:00am 22.5 25.9 19.3 82 2.1 CALM 0 0 0 0 1009.8 1007.7 29.8
19/08:30am 21.8 24.8 19.2 85 1.7 SE 2 7 1 4 1009.9 1007.8 29.6
19/08:00am 21.4 22.5 18.8 85 1.7 SSW 11 15 6 8 1009.6 1007.5 29.4
19/07:30am 21.7 23.9 19.1 85 1.7 SSW 6 13 3 7 1009.5 1007.4 29.4
19/07:00am 21.6 24.6 19.2 86 1.5 SSW 2 9 1 5 1009.2 1007.1 29.4
19/06:30am 21.3 23.4 18.9 86 1.5 SSW 6 7 3 4 1008.9 1006.8 29.4
19/06:00am 21.0 22.5 18.8 87 1.4 NE 9 13 5 7 1008.8 1006.7 29.4
19/05:30am 20.7 23.0 18.6 88 1.3 ESE 4 11 2 6 1008.7 1006.6 29.4
19/05:00am 20.4 21.7 18.5 89 1.2 ENE 9 13 5 7 1009.1 1007.0 29.4
19/04:30am 20.3 20.7 18.2 88 1.3 ENE 13 17 7 9 1009.4 1007.3 29.4
19/04:00am 20.7 22.1 18.6 88 1.3 ENE 9 15 5 8 1009.6 1007.5 29.0
19/03:30am 20.3 19.4 18.1 87 1.4 E 20 26 11 14 1009.1 1007.0 29.0
19/03:00am 20.0 19.0 18.0 88 1.3 ENE 20 30 11 16 1009.3 1007.2 28.6
19/02:30am 19.9 19.0 18.2 90 1.1 ENE 20 24 11 13 1009.6 1007.5 28.4
19/02:00am 19.9 19.6 18.2 90 1.1 E 17 22 9 12 1010.5 1008.5 27.2
19/01:30am 20.1 21.0 18.4 90 1.1 NE 11 15 6 8 1011.5 1009.5 26.4
19/01:00am 20.1 21.8 18.4 90 1.1 ENE 7 13 4 7 1011.6 1009.6 25.6
19/12:30am 20.2 20.1 18.7 91 1.0 ESE 17 20 9 11 1011.6 1009.6 24.4
19/12:00am 20.4 20.3 18.7 90 1.1 SSE 17 22 9 12 1012.2 1010.1 22.0
 
Date/Time
EST
Temp
°C
App
Temp
°C
Dew
Point
°C
Rel
Hum
%
Delta-T
°C
Wind Press
QNH
hPa
Press
MSL
hPa
Rain since
9am
mm
Dir  Spd
km/h
Gust
km/h
Spd
kts
Gust
kts
18/11:30pm 20.7 19.7 18.8 89 1.2 S 22 30 12 16 1012.3 1010.2 20.2
18/11:00pm 21.2 19.7 19.5 90 1.1 SSW 26 33 14 18 1012.4 1010.3 18.8
18/10:30pm 21.2 18.0 19.5 90 1.1 SW 35 50 19 27 1012.6 1010.5 16.4
18/10:00pm 21.2 15.5 19.3 89 1.2 WSW 48 70 26 38 1012.1 1010.0 11.6
18/09:53pm 21.1 13.5 19.0 88 1.3 WSW 57 80 31 43 1012.0 1009.9 9.4
18/09:41pm 21.0 10.9 16.6 76 2.7 W 65 91 35 49 1010.4 1008.4 1.2
18/09:37pm 26.1 18.8 16.6 55 6.0 WNW 50 83 27 45 1009.6 1007.5 0.0
18/09:36pm 26.9 20.2 16.2 52 6.7 NW 46 78 25 42 1009.4 1007.3 0.0
18/09:31pm 29.5 24.0 13.7 38 9.6 N 35 74 19 40 1009.4 1007.3 0.0
18/09:30pm 31.7 26.9 13.9 34 10.9 N 32 46 17 25 1008.8 1006.7 0.0
18/09:00pm 32.5 30.1 12.7 30 12.0 N 17 24 9 13 1006.9 1004.8 0.0
18/08:30pm 32.9 29.9 12.5 29 12.3 N 20 26 11 14 1006.5 1004.4 0.0
18/08:00pm 33.4 30.5 12.4 28 12.7 N 19 24 10 13 1006.3 1004.2 0.0
18/07:30pm 34.0 31.5 12.4 27 13.1 N 17 24 9 13 1006.0 1003.9 0.0
18/07:00pm 33.3 31.8 10.6 25 13.4 NNW 9 11 5 6 1005.4 1003.4 0.0
18/06:30pm 34.6 33.1 10.4 23 14.3 NNW 9 11 5 6 1005.2 1003.2 0.0
18/06:00pm 36.3 33.6 10.5 21 15.4 NNW 15 19 8 10 1004.8 1002.7 0.0
18/05:30pm 37.3 35.4 10.6 20 15.9 NW 11 22 6 12 1004.9 1002.9 0.0
18/05:00pm 36.8 35.2 10.2 20 15.8 N 9 15 5 8 1005.1 1003.1 0.0
18/04:30pm 37.8 35.3 11.0 20 16.1 WNW 15 26 8 14 1005.5 1003.5 0.0
18/04:00pm 37.0 35.7 11.1 21 15.6 N 9 17 5 9 1006.0 1003.9 0.0
18/03:30pm 37.5 34.4 11.5 21 15.7 NW 19 26 10 14 1006.5 1004.4 0.0
18/03:00pm 37.4 34.0 11.4 21 15.7 WNW 20 32 11 17 1007.0 1004.9 0.0
18/02:30pm 37.7 34.4 11.6 21 15.8 WNW 20 35 11 19 1007.5 1005.5 0.0
18/02:00pm 36.7 32.2 11.5 22 15.2 W 26 37 14 20 1008.0 1006.0 0.0
18/01:30pm 36.5 33.9 12.0 23 14.9 NW 17 28 9 15 1008.5 1006.5 0.0
18/01:00pm 35.6 33.0 13.7 27 13.6 NNW 20 30 11 16 1009.1 1007.0 0.0
18/12:30pm 35.4 32.1 14.1 28 13.3 NW 24 35 13 19 1009.6 1007.5 0.0
18/12:00pm 34.2 30.4 13.6 29 12.7 NNW 26 35 14 19 1010.0 1007.9 0.0
18/11:30am 33.4 30.1 14.0 31 12.0 NNW 24 43 13 23 1010.4 1008.4 0.0
18/11:00am 32.6 28.7 13.3 31 11.8 NNW 26 35 14 19 1010.8 1008.8 0.0
18/10:30am 32.1 28.4 13.8 33 11.2 NNW 26 37 14 20 1011.3 1009.3 0.0
18/10:00am 30.8 28.7 14.8 37 9.9 NNW 19 26 10 14 1011.6 1009.6 0.0
18/09:30am 28.8 26.3 14.2 40 8.9 N 20 28 11 15 1011.5 1009.5 0.0
18/09:00am 27.4 25.3 14.8 46 7.7 N 19 24 10 13 1011.9 1009.8 0.0
18/08:30am 26.4 23.6 15.4 50 6.8 N 24 30 13 16 1012.3 1010.2 0.0
18/08:00am 25.0 22.0 15.9 57 5.6 N 26 32 14 17 1012.3 1010.2 0.0
18/07:30am 24.2 21.6 15.9 59 5.1 N 24 32 13 17 1012.6 1010.5 0.0
18/07:00am 23.8 20.5 16.1 62 4.7 N 28 41 15 22 1012.6 1010.5 0.0
18/06:30am 23.9 19.2 15.9 61 4.9 N 35 43 19 23 1012.0 1009.9 0.0
18/06:00am 23.1 19.2 15.4 62 4.7 N 30 39 16 21 1012.7 1010.7 0.0
18/05:30am 22.7 20.3 15.3 63 4.5 NW 22 30 12 16 1013.0 1011.0 0.0
18/05:00am 23.5 22.3 15.0 59 5.1 NNW 15 20 8 11 1013.1 1011.1 0.0
18/04:30am 23.9 23.4 15.9 61 4.9 NNW 13 19 7 10 1013.1 1011.1 0.0
18/04:00am 24.0 24.6 17.7 68 4.0 NW 11 13 6 7 1012.8 1010.8 0.0
18/03:30am 24.2 24.8 17.7 67 4.1 W 11 13 6 7 1013.0 1011.0 0.0
18/03:00am 24.5 24.4 17.0 63 4.7 NE 13 17 7 9 1011.9 1009.8 0.0
18/02:30am 24.5 23.4 17.2 63 4.6 ENE 19 20 10 11 1011.3 1009.3 0.0
18/02:00am 24.5 22.6 17.7 66 4.3 ENE 24 30 13 16 1011.3 1009.3 0.0
18/01:30am 24.8 23.8 17.5 64 4.6 E 19 24 10 13 1012.7 1010.7 0.0
18/01:00am 24.9 25.2 17.9 65 4.5 SSE 13 17 7 9 1014.0 1012.0 0.0
18/12:30am 24.8 24.0 18.0 66 4.3 S 19 24 10 13 1015.0 1012.9 0.0
18/12:00am 25.5 24.0 17.7 62 5.0 SSW 22 28 12 15 1015.3 1013.3 0.0
 
Date/Time
EST
Temp
°C
App
Temp
°C
Dew
Point
°C
Rel
Hum
%
Delta-T
°C
Wind Press
QNH
hPa
Press
MSL
hPa
Rain since
9am
mm
Dir  Spd
km/h
Gust
km/h
Spd
kts
Gust
kts
17/11:30pm 27.8 26.9 15.8 48 7.5 WNW 15 32 8 17 1014.7 1012.7 0.0
17/11:00pm 27.2 23.7 13.5 42 8.2 N 24 35 13 19 1013.6 1011.6 0.0
17/10:30pm 27.7 24.4 14.0 43 8.3 NNE 24 35 13 19 1013.0 1011.0 0.0
17/10:00pm 28.6 24.7 14.4 41 8.7 NNE 28 39 15 21 1012.8 1010.8 0.0
17/09:30pm 29.4 26.5 14.0 39 9.4 NNE 22 39 12 21 1012.4 1010.3 0.0
17/09:00pm 29.6 26.9 11.6 33 10.6 ENE 17 22 9 12 1012.3 1010.2 0.0
17/08:30pm 30.5 27.4 11.5 31 11.2 ENE 19 22 10 12 1012.0 1009.9 0.0
17/08:00pm 31.8 29.1 11.6 29 12.0 NE 17 24 9 13 1011.5 1009.5 0.0
17/07:30pm 32.4 29.8 12.1 29 12.2 NE 17 24 9 13 1010.7 1008.7 0.0
17/07:00pm 30.8 28.3 9.6 27 12.1 NE 13 13 7 7 1010.1 1008.1 0.0
17/06:30pm 33.1 31.0 9.8 24 13.5 NE 11 15 6 8 1009.9 1007.8 0.0
17/06:00pm 34.6 32.5 9.8 22 14.5 ENE 11 15 6 8 1009.7 1007.6 0.0
17/05:30pm 35.0 32.2 8.7 20 15.1 ENE 13 19 7 10 1009.8 1007.7 0.0
17/05:00pm 35.5 33.4 9.8 21 15.1 NE 11 19 6 10 1010.0 1007.9 0.0
17/04:30pm 35.6 34.1 10.6 22 14.8 NNE 9 17 5 9 1010.3 1008.3 0.0
17/04:00pm 36.1 35.1 11.0 22 15.0 WNW 7 19 4 10 1010.7 1008.7 0.0
17/03:30pm 35.1 33.5 10.2 22 14.7 NNW 9 15 5 8 1011.1 1009.1 0.0
17/03:00pm 34.3 33.8 12.0 25 13.4 WSW 6 13 3 7 1011.6 1009.6 0.0
17/02:30pm 34.1 32.6 11.9 26 13.3 NW 11 20 6 11 1012.0 1009.9 0.0
17/02:00pm 33.7 33.6 13.2 29 12.5 N 6 15 3 8 1012.4 1010.3 0.0
17/01:30pm 33.2 31.4 13.3 30 12.2 N 15 24 8 13 1012.9 1010.9 0.0
17/01:00pm 33.1 32.2 13.7 31 11.9 N 11 22 6 12 1013.3 1011.3 0.0
17/12:30pm 32.8 30.3 13.4 30 11.9 WNW 19 28 10 15 1013.7 1011.7 0.0
17/12:00pm 31.9 30.1 13.2 32 11.4 NW 15 26 8 14 1014.2 1012.2 0.0
17/11:30am 31.0 29.2 13.3 34 10.7 NW 15 26 8 14 1014.9 1012.8 0.0
17/11:00am 30.1 28.8 13.8 37 9.9 N 13 22 7 12 1015.4 1013.4 0.0
17/10:30am 28.7 26.8 14.1 40 8.9 NNW 17 26 9 14 1015.8 1013.8 0.0
17/10:00am 28.4 27.3 15.3 45 8.1 NNW 15 22 8 12 1016.2 1014.2 0.0
17/09:30am 26.9 25.7 15.0 48 7.3 N 15 22 8 12 1016.5 1014.5 0.0
17/09:00am 26.5 25.1 15.5 50 6.8 N 17 24 9 13 1016.5 1014.5 0.0
17/08:30am 25.7 23.8 15.7 54 6.2 NNW 20 28 11 15 1016.6 1014.6 0.0
17/08:00am 24.5 22.7 16.0 59 5.2 NNW 20 28 11 15 1016.7 1014.7 0.0
17/07:30am 23.8 22.2 16.1 62 4.7 N 19 24 10 13 1016.5 1014.5 0.0
17/07:00am 22.4 22.2 15.7 66 4.1 NNE 11 15 6 8 1016.4 1014.4 0.0
17/06:30am 21.2 21.0 15.7 71 3.3 ENE 11 15 6 8 1016.2 1014.2 0.0
17/06:00am 19.9 19.9 15.3 75 2.8 N 9 11 5 6 1016.0 1014.0 0.0
17/05:30am 19.8 20.0 14.8 73 3.0 NW 7 7 4 4 1015.8 1013.8 0.0
17/05:00am 19.6 19.3 14.4 72 3.1 NNE 9 11 5 6 1015.5 1013.5 0.0

Other Formats:

Comma delimited format used in spreadsheet applications
http://www.bom.gov.au/fwo/IDQ60801/IDQ60801.94542.axf

JavaScript Object Notation format (JSON) in row-major order
http://www.bom.gov.au/fwo/IDQ60801/IDQ60801.94542.json